Prairie City, South Dakota
Current Conditions -  °F | °C
As of 9:53 PM on Friday 24 Oct 2014 (Local Time) from KHEI Reporting Station
Overcast Overcast  
Wind Chill: 47°   Ceiling: 11000
Heat Index: 47°   Visibility: 10mi
Dew Point: 35°   Wind: 3mph
Humidity: 63%   Direction: 280°W
Pressure: 30.1"   Gusts: NA
Location:  45.53°N, 102.81°W
Report Text: KHEI 250353Z AUTO 28003KT 10SM OVC110 08/02 A3010 RMK AO2 SLP193 T00830017
Loading
Personal Weather Stations






























Interactive Weather Map
Tropical Storm Tracking
New forecast layout! Learn more

10-Day Weather Forecast

Advertisements
Track Severe Weather on mobile